sensor_id;sensor_type;location;lat;lon;timestamp;temperature;humidity
43665;DHT22;29263;48.172;11.484;2022-09-24T00:00:41;9.90;99.90
43665;DHT22;29263;48.172;11.484;2022-09-24T00:03:07;9.80;99.90
43665;DHT22;29263;48.172;11.484;2022-09-24T00:05:39;9.80;99.90
43665;DHT22;29263;48.172;11.484;2022-09-24T00:08:08;9.80;99.90
43665;DHT22;29263;48.172;11.484;2022-09-24T00:10:44;9.70;99.90
43665;DHT22;29263;48.172;11.484;2022-09-24T00:13:13;9.80;99.90
43665;DHT22;29263;48.172;11.484;2022-09-24T00:15:41;9.90;99.90
43665;DHT22;29263;48.172;11.484;2022-09-24T00:18:07;9.70;99.90
43665;DHT22;29263;48.172;11.484;2022-09-24T00:20:34;9.80;99.90
43665;DHT22;29263;48.172;11.484;2022-09-24T00:23:00;9.70;99.90
43665;DHT22;29263;48.172;11.484;2022-09-24T00:25:26;9.80;99.90
43665;DHT22;29263;48.172;11.484;2022-09-24T00:28:12;9.80;99.90
43665;DHT22;29263;48.172;11.484;2022-09-24T00:30:39;9.70;99.90
43665;DHT22;29263;48.172;11.484;2022-09-24T00:33:05;9.70;99.90
43665;DHT22;29263;48.172;11.484;2022-09-24T00:35:35;9.70;99.90
43665;DHT22;29263;48.172;11.484;2022-09-24T00:38:01;9.70;99.90
43665;DHT22;29263;48.172;11.484;2022-09-24T00:40:32;9.70;99.90
43665;DHT22;29263;48.172;11.484;2022-09-24T00:42:58;9.90;99.90
43665;DHT22;29263;48.172;11.484;2022-09-24T00:45:26;9.70;99.90
43665;DHT22;29263;48.172;11.484;2022-09-24T00:47:53;9.80;99.90
43665;DHT22;29263;48.172;11.484;2022-09-24T00:50:25;9.80;99.90
43665;DHT22;29263;48.172;11.484;2022-09-24T00:53:10;9.80;99.90
43665;DHT22;29263;48.172;11.484;2022-09-24T00:55:39;9.80;99.90
43665;DHT22;29263;48.172;11.484;2022-09-24T00:58:07;9.70;99.90
43665;DHT22;29263;48.172;11.484;2022-09-24T01:00:35;9.70;99.90
43665;DHT22;29263;48.172;11.484;2022-09-24T01:03:05;9.70;99.90
43665;DHT22;29263;48.172;11.484;2022-09-24T01:05:31;9.70;99.90
43665;DHT22;29263;48.172;11.484;2022-09-24T01:07:57;9.60;99.90
43665;DHT22;29263;48.172;11.484;2022-09-24T01:21:57;9.50;99.90
43665;DHT22;29263;48.172;11.484;2022-09-24T01:27:17;9.40;99.90
43665;DHT22;29263;48.172;11.484;2022-09-24T01:35:27;9.40;99.90
43665;DHT22;29263;48.172;11.484;2022-09-24T01:38:11;9.40;99.90
43665;DHT22;29263;48.172;11.484;2022-09-24T01:40:38;9.40;99.90
43665;DHT22;29263;48.172;11.484;2022-09-24T01:43:06;9.40;99.90
43665;DHT22;29263;48.172;11.484;2022-09-24T01:45:36;9.40;99.90
43665;DHT22;29263;48.172;11.484;2022-09-24T01:48:03;9.40;99.90
43665;DHT22;29263;48.172;11.484;2022-09-24T01:50:34;9.30;99.90
43665;DHT22;29263;48.172;11.484;2022-09-24T01:53:09;9.40;99.90
43665;DHT22;29263;48.172;11.484;2022-09-24T01:55:42;9.30;99.90
43665;DHT22;29263;48.172;11.484;2022-09-24T01:58:31;9.30;99.90
43665;DHT22;29263;48.172;11.484;2022-09-24T02:01:07;9.30;99.90
43665;DHT22;29263;48.172;11.484;2022-09-24T02:03:38;9.30;99.90
43665;DHT22;29263;48.172;11.484;2022-09-24T02:06:20;9.30;99.90
43665;DHT22;29263;48.172;11.484;2022-09-24T02:08:47;9.30;99.90
43665;DHT22;29263;48.172;11.484;2022-09-24T02:11:20;9.30;99.90
43665;DHT22;29263;48.172;11.484;2022-09-24T02:16:23;9.30;99.90
43665;DHT22;29263;48.172;11.484;2022-09-24T02:18:53;9.30;99.90
43665;DHT22;29263;48.172;11.484;2022-09-24T02:21:23;9.30;99.90
43665;DHT22;29263;48.172;11.484;2022-09-24T02:23:59;9.30;99.90
43665;DHT22;29263;48.172;11.484;2022-09-24T02:26:25;9.30;99.90
43665;DHT22;29263;48.172;11.484;2022-09-24T02:28:51;9.40;99.90
43665;DHT22;29263;48.172;11.484;2022-09-24T02:31:21;9.40;99.90
43665;DHT22;29263;48.172;11.484;2022-09-24T02:33:49;9.30;99.90
43665;DHT22;29263;48.172;11.484;2022-09-24T02:36:34;9.30;99.90
43665;DHT22;29263;48.172;11.484;2022-09-24T02:39:00;9.30;99.90
43665;DHT22;29263;48.172;11.484;2022-09-24T02:41:27;9.30;99.90
43665;DHT22;29263;48.172;11.484;2022-09-24T02:43:54;9.30;99.90
43665;DHT22;29263;48.172;11.484;2022-09-24T02:46:20;9.30;99.90
43665;DHT22;29263;48.172;11.484;2022-09-24T02:48:45;9.30;99.90
43665;DHT22;29263;48.172;11.484;2022-09-24T02:51:11;9.30;99.90
43665;DHT22;29263;48.172;11.484;2022-09-24T02:53:36;9.30;99.90
43665;DHT22;29263;48.172;11.484;2022-09-24T02:56:03;9.30;99.90
43665;DHT22;29263;48.172;11.484;2022-09-24T02:58:29;9.40;99.90
43665;DHT22;29263;48.172;11.484;2022-09-24T03:00:55;9.30;99.90
43665;DHT22;29263;48.172;11.484;2022-09-24T03:03:24;9.30;99.90
43665;DHT22;29263;48.172;11.484;2022-09-24T03:05:51;9.30;99.90
43665;DHT22;29263;48.172;11.484;2022-09-24T03:08:20;9.30;99.90
43665;DHT22;29263;48.172;11.484;2022-09-24T03:10:46;9.30;99.90
43665;DHT22;29263;48.172;11.484;2022-09-24T03:13:12;9.40;99.90
43665;DHT22;29263;48.172;11.484;2022-09-24T03:15:38;9.40;99.90
43665;DHT22;29263;48.172;11.484;2022-09-24T03:18:04;9.40;99.90
43665;DHT22;29263;48.172;11.484;2022-09-24T03:20:30;9.40;99.90
43665;DHT22;29263;48.172;11.484;2022-09-24T03:22:55;9.40;99.90
43665;DHT22;29263;48.172;11.484;2022-09-24T03:25:21;9.40;99.90
43665;DHT22;29263;48.172;11.484;2022-09-24T03:27:47;9.40;99.90
43665;DHT22;29263;48.172;11.484;2022-09-24T03:30:13;9.50;99.90
43665;DHT22;29263;48.172;11.484;2022-09-24T03:32:57;9.50;99.90
43665;DHT22;29263;48.172;11.484;2022-09-24T03:35:24;9.50;99.90
43665;DHT22;29263;48.172;11.484;2022-09-24T03:37:50;9.50;99.90
43665;DHT22;29263;48.172;11.484;2022-09-24T03:40:16;9.60;99.90
43665;DHT22;29263;48.172;11.484;2022-09-24T03:42:41;9.60;99.90
43665;DHT22;29263;48.172;11.484;2022-09-24T03:45:07;9.60;99.90
43665;DHT22;29263;48.172;11.484;2022-09-24T03:47:33;9.70;99.90
43665;DHT22;29263;48.172;11.484;2022-09-24T03:49:59;9.70;99.90
43665;DHT22;29263;48.172;11.484;2022-09-24T03:52:25;9.80;99.90
43665;DHT22;29263;48.172;11.484;2022-09-24T03:54:51;9.80;99.90
43665;DHT22;29263;48.172;11.484;2022-09-24T03:57:16;9.90;99.90
43665;DHT22;29263;48.172;11.484;2022-09-24T03:59:43;9.80;99.90
43665;DHT22;29263;48.172;11.484;2022-09-24T04:02:09;9.90;99.90
43665;DHT22;29263;48.172;11.484;2022-09-24T04:04:35;9.90;99.90
43665;DHT22;29263;48.172;11.484;2022-09-24T04:07:01;9.90;99.90
43665;DHT22;29263;48.172;11.484;2022-09-24T04:09:27;10.00;99.90
43665;DHT22;29263;48.172;11.484;2022-09-24T04:11:52;9.90;99.90
43665;DHT22;29263;48.172;11.484;2022-09-24T04:14:19;10.00;99.90
43665;DHT22;29263;48.172;11.484;2022-09-24T04:16:45;10.00;99.90
43665;DHT22;29263;48.172;11.484;2022-09-24T04:19:14;10.00;99.90
43665;DHT22;29263;48.172;11.484;2022-09-24T04:21:46;10.00;99.90
43665;DHT22;29263;48.172;11.484;2022-09-24T04:24:12;10.10;99.90
43665;DHT22;29263;48.172;11.484;2022-09-24T04:26:38;10.00;99.90
43665;DHT22;29263;48.172;11.484;2022-09-24T04:29:03;10.00;99.90
43665;DHT22;29263;48.172;11.484;2022-09-24T04:31:30;10.00;99.90
43665;DHT22;29263;48.172;11.484;2022-09-24T04:33:58;10.00;99.90
43665;DHT22;29263;48.172;11.484;2022-09-24T04:36:24;10.10;99.90
43665;DHT22;29263;48.172;11.484;2022-09-24T04:38:49;10.20;99.90
43665;DHT22;29263;48.172;11.484;2022-09-24T04:41:15;10.10;99.90
43665;DHT22;29263;48.172;11.484;2022-09-24T04:43:41;10.10;99.90
43665;DHT22;29263;48.172;11.484;2022-09-24T04:46:07;10.20;99.90
43665;DHT22;29263;48.172;11.484;2022-09-24T04:48:34;10.20;99.90
43665;DHT22;29263;48.172;11.484;2022-09-24T04:51:03;10.20;99.90
43665;DHT22;29263;48.172;11.484;2022-09-24T04:53:29;10.20;99.90
43665;DHT22;29263;48.172;11.484;2022-09-24T04:55:55;10.20;99.90
43665;DHT22;29263;48.172;11.484;2022-09-24T04:58:20;10.20;99.90
43665;DHT22;29263;48.172;11.484;2022-09-24T05:00:46;10.30;99.90
43665;DHT22;29263;48.172;11.484;2022-09-24T05:03:12;10.20;99.90
43665;DHT22;29263;48.172;11.484;2022-09-24T05:05:38;10.30;99.90
43665;DHT22;29263;48.172;11.484;2022-09-24T05:08:03;10.20;99.90
43665;DHT22;29263;48.172;11.484;2022-09-24T05:10:30;10.20;99.90
43665;DHT22;29263;48.172;11.484;2022-09-24T05:12:58;10.30;99.90
43665;DHT22;29263;48.172;11.484;2022-09-24T05:15:23;10.30;99.90
43665;DHT22;29263;48.172;11.484;2022-09-24T05:17:49;10.30;99.90
43665;DHT22;29263;48.172;11.484;2022-09-24T05:20:15;10.20;99.90
43665;DHT22;29263;48.172;11.484;2022-09-24T05:22:45;10.20;99.90
43665;DHT22;29263;48.172;11.484;2022-09-24T05:25:12;10.30;99.90
43665;DHT22;29263;48.172;11.484;2022-09-24T05:27:50;10.30;99.90
43665;DHT22;29263;48.172;11.484;2022-09-24T05:30:17;10.30;99.90
43665;DHT22;29263;48.172;11.484;2022-09-24T05:32:43;10.30;99.90
43665;DHT22;29263;48.172;11.484;2022-09-24T05:35:09;10.30;99.90
43665;DHT22;29263;48.172;11.484;2022-09-24T05:37:36;10.30;99.90
43665;DHT22;29263;48.172;11.484;2022-09-24T05:40:03;10.40;99.90
43665;DHT22;29263;48.172;11.484;2022-09-24T05:42:48;10.40;99.90
43665;DHT22;29263;48.172;11.484;2022-09-24T05:45:13;10.40;99.90
43665;DHT22;29263;48.172;11.484;2022-09-24T05:47:45;10.50;99.90
43665;DHT22;29263;48.172;11.484;2022-09-24T05:50:12;10.50;99.90
43665;DHT22;29263;48.172;11.484;2022-09-24T05:52:41;10.70;99.90
43665;DHT22;29263;48.172;11.484;2022-09-24T05:55:08;10.60;99.90
43665;DHT22;29263;48.172;11.484;2022-09-24T05:57:35;10.70;99.90
43665;DHT22;29263;48.172;11.484;2022-09-24T06:00:01;10.70;99.90
43665;DHT22;29263;48.172;11.484;2022-09-24T06:02:26;10.70;99.90
43665;DHT22;29263;48.172;11.484;2022-09-24T06:04:52;10.80;99.90
43665;DHT22;29263;48.172;11.484;2022-09-24T06:07:18;10.80;99.90
43665;DHT22;29263;48.172;11.484;2022-09-24T06:09:44;11.00;99.90
43665;DHT22;29263;48.172;11.484;2022-09-24T06:12:12;11.10;99.90
43665;DHT22;29263;48.172;11.484;2022-09-24T06:14:38;11.10;99.90
43665;DHT22;29263;48.172;11.484;2022-09-24T06:17:04;11.20;99.90
43665;DHT22;29263;48.172;11.484;2022-09-24T06:19:30;11.30;99.90
43665;DHT22;29263;48.172;11.484;2022-09-24T06:21:56;11.40;99.90
43665;DHT22;29263;48.172;11.484;2022-09-24T06:24:22;11.60;99.90
43665;DHT22;29263;48.172;11.484;2022-09-24T06:26:48;11.70;99.90
43665;DHT22;29263;48.172;11.484;2022-09-24T06:29:13;12.00;99.90
43665;DHT22;29263;48.172;11.484;2022-09-24T06:31:39;12.20;99.90
43665;DHT22;29263;48.172;11.484;2022-09-24T06:34:05;12.30;99.90
43665;DHT22;29263;48.172;11.484;2022-09-24T06:36:30;12.40;99.90
43665;DHT22;29263;48.172;11.484;2022-09-24T06:38:56;12.50;99.90
43665;DHT22;29263;48.172;11.484;2022-09-24T06:41:23;12.60;99.90
43665;DHT22;29263;48.172;11.484;2022-09-24T06:43:51;12.70;99.90
43665;DHT22;29263;48.172;11.484;2022-09-24T06:46:17;12.70;99.90
43665;DHT22;29263;48.172;11.484;2022-09-24T06:48:43;12.70;99.90
43665;DHT22;29263;48.172;11.484;2022-09-24T06:51:08;12.70;99.90
43665;DHT22;29263;48.172;11.484;2022-09-24T06:53:34;12.70;99.90
43665;DHT22;29263;48.172;11.484;2022-09-24T06:56:00;12.80;99.90
43665;DHT22;29263;48.172;11.484;2022-09-24T06:58:28;12.80;99.90
43665;DHT22;29263;48.172;11.484;2022-09-24T07:00:58;12.80;99.90
43665;DHT22;29263;48.172;11.484;2022-09-24T07:03:25;12.90;99.90
43665;DHT22;29263;48.172;11.484;2022-09-24T07:05:51;13.10;99.90
43665;DHT22;29263;48.172;11.484;2022-09-24T07:08:17;12.90;99.90
43665;DHT22;29263;48.172;11.484;2022-09-24T07:10:47;13.00;99.90
43665;DHT22;29263;48.172;11.484;2022-09-24T07:13:17;13.00;99.90
43665;DHT22;29263;48.172;11.484;2022-09-24T07:15:43;13.00;99.90
43665;DHT22;29263;48.172;11.484;2022-09-24T07:18:09;13.00;99.90
43665;DHT22;29263;48.172;11.484;2022-09-24T07:20:35;13.00;99.90
43665;DHT22;29263;48.172;11.484;2022-09-24T07:23:05;12.90;99.90
43665;DHT22;29263;48.172;11.484;2022-09-24T07:25:31;12.90;99.90
43665;DHT22;29263;48.172;11.484;2022-09-24T07:28:06;13.00;99.90
43665;DHT22;29263;48.172;11.484;2022-09-24T07:30:34;13.00;99.90
43665;DHT22;29263;48.172;11.484;2022-09-24T07:33:00;13.00;99.90
43665;DHT22;29263;48.172;11.484;2022-09-24T07:35:26;13.00;99.90
43665;DHT22;29263;48.172;11.484;2022-09-24T07:37:56;13.00;99.90
43665;DHT22;29263;48.172;11.484;2022-09-24T07:40:22;13.00;99.90
43665;DHT22;29263;48.172;11.484;2022-09-24T07:42:48;13.00;99.90
43665;DHT22;29263;48.172;11.484;2022-09-24T07:45:14;13.00;99.90
43665;DHT22;29263;48.172;11.484;2022-09-24T07:47:41;13.00;99.90
43665;DHT22;29263;48.172;11.484;2022-09-24T07:50:07;13.00;99.90
43665;DHT22;29263;48.172;11.484;2022-09-24T07:52:33;13.00;99.90
43665;DHT22;29263;48.172;11.484;2022-09-24T07:55:00;13.10;99.90
43665;DHT22;29263;48.172;11.484;2022-09-24T07:57:25;13.10;99.90
43665;DHT22;29263;48.172;11.484;2022-09-24T07:59:52;13.10;99.90
43665;DHT22;29263;48.172;11.484;2022-09-24T08:02:18;13.10;99.90
43665;DHT22;29263;48.172;11.484;2022-09-24T08:04:44;13.10;99.90
43665;DHT22;29263;48.172;11.484;2022-09-24T08:07:11;13.00;99.90
43665;DHT22;29263;48.172;11.484;2022-09-24T08:09:37;13.00;99.90
43665;DHT22;29263;48.172;11.484;2022-09-24T08:12:04;12.90;99.90
43665;DHT22;29263;48.172;11.484;2022-09-24T08:14:29;12.90;99.90
43665;DHT22;29263;48.172;11.484;2022-09-24T08:16:55;12.90;99.90
43665;DHT22;29263;48.172;11.484;2022-09-24T08:19:21;12.90;99.90
43665;DHT22;29263;48.172;11.484;2022-09-24T08:21:47;13.00;99.90
43665;DHT22;29263;48.172;11.484;2022-09-24T08:24:13;13.10;99.90
43665;DHT22;29263;48.172;11.484;2022-09-24T08:26:40;13.10;99.90
43665;DHT22;29263;48.172;11.484;2022-09-24T08:29:05;13.00;99.90
43665;DHT22;29263;48.172;11.484;2022-09-24T08:31:31;13.00;99.90
43665;DHT22;29263;48.172;11.484;2022-09-24T08:33:59;13.10;99.90
43665;DHT22;29263;48.172;11.484;2022-09-24T08:36:25;13.10;99.90
43665;DHT22;29263;48.172;11.484;2022-09-24T08:38:53;13.10;99.90
43665;DHT22;29263;48.172;11.484;2022-09-24T08:41:33;13.10;99.90
43665;DHT22;29263;48.172;11.484;2022-09-24T08:44:47;13.20;99.90
43665;DHT22;29263;48.172;11.484;2022-09-24T08:47:49;13.30;99.90
43665;DHT22;29263;48.172;11.484;2022-09-24T08:50:26;13.40;99.90
43665;DHT22;29263;48.172;11.484;2022-09-24T08:53:02;13.50;99.90
43665;DHT22;29263;48.172;11.484;2022-09-24T08:55:48;13.60;99.90
43665;DHT22;29263;48.172;11.484;2022-09-24T09:00:57;13.70;99.90
43665;DHT22;29263;48.172;11.484;2022-09-24T09:08:56;13.90;99.90
43665;DHT22;29263;48.172;11.484;2022-09-24T09:11:28;14.00;99.90
43665;DHT22;29263;48.172;11.484;2022-09-24T09:13:58;14.10;99.90
43665;DHT22;29263;48.172;11.484;2022-09-24T09:17:02;14.10;99.90
43665;DHT22;29263;48.172;11.484;2022-09-24T09:19:32;14.20;99.90
43665;DHT22;29263;48.172;11.484;2022-09-24T09:22:12;14.20;99.90
43665;DHT22;29263;48.172;11.484;2022-09-24T09:24:52;14.20;99.90
43665;DHT22;29263;48.172;11.484;2022-09-24T09:27:20;14.20;99.90
43665;DHT22;29263;48.172;11.484;2022-09-24T09:29:49;14.20;99.90
43665;DHT22;29263;48.172;11.484;2022-09-24T09:42:34;14.30;99.90
43665;DHT22;29263;48.172;11.484;2022-09-24T09:45:19;14.30;99.90
43665;DHT22;29263;48.172;11.484;2022-09-24T09:47:53;14.30;99.90
43665;DHT22;29263;48.172;11.484;2022-09-24T09:50:45;14.40;99.90
43665;DHT22;29263;48.172;11.484;2022-09-24T09:53:23;14.40;99.90
43665;DHT22;29263;48.172;11.484;2022-09-24T09:56:05;14.40;99.90
43665;DHT22;29263;48.172;11.484;2022-09-24T09:58:36;14.40;99.90
43665;DHT22;29263;48.172;11.484;2022-09-24T10:01:10;14.40;99.90
43665;DHT22;29263;48.172;11.484;2022-09-24T10:06:10;14.40;99.90
43665;DHT22;29263;48.172;11.484;2022-09-24T10:08:37;14.30;99.90
43665;DHT22;29263;48.172;11.484;2022-09-24T10:11:03;14.40;99.90
43665;DHT22;29263;48.172;11.484;2022-09-24T10:13:29;14.40;99.90
43665;DHT22;29263;48.172;11.484;2022-09-24T10:15:59;14.40;99.90
43665;DHT22;29263;48.172;11.484;2022-09-24T10:18:30;14.30;99.90
43665;DHT22;29263;48.172;11.484;2022-09-24T10:20:58;14.30;99.90
43665;DHT22;29263;48.172;11.484;2022-09-24T10:23:39;14.30;99.90
43665;DHT22;29263;48.172;11.484;2022-09-24T10:26:06;14.30;99.90
43665;DHT22;29263;48.172;11.484;2022-09-24T10:28:33;14.30;99.90
43665;DHT22;29263;48.172;11.484;2022-09-24T10:31:24;14.30;99.90
43665;DHT22;29263;48.172;11.484;2022-09-24T10:33:53;14.30;99.90
43665;DHT22;29263;48.172;11.484;2022-09-24T10:36:22;14.20;99.90
43665;DHT22;29263;48.172;11.484;2022-09-24T10:38:59;14.10;99.90
43665;DHT22;29263;48.172;11.484;2022-09-24T10:41:27;14.00;99.90
43665;DHT22;29263;48.172;11.484;2022-09-24T10:43:54;14.00;99.90
43665;DHT22;29263;48.172;11.484;2022-09-24T10:54:50;13.90;99.90
43665;DHT22;29263;48.172;11.484;2022-09-24T11:00:19;14.00;99.90
43665;DHT22;29263;48.172;11.484;2022-09-24T11:03:07;14.10;99.90
43665;DHT22;29263;48.172;11.484;2022-09-24T11:08:20;14.10;99.90
43665;DHT22;29263;48.172;11.484;2022-09-24T11:16:42;14.00;99.90
43665;DHT22;29263;48.172;11.484;2022-09-24T11:22:12;14.00;99.90
43665;DHT22;29263;48.172;11.484;2022-09-24T11:38:47;14.00;99.90
43665;DHT22;29263;48.172;11.484;2022-09-24T11:49:40;14.00;99.90
43665;DHT22;29263;48.172;11.484;2022-09-24T11:57:18;14.10;99.90
43665;DHT22;29263;48.172;11.484;2022-09-24T12:00:02;14.10;99.90
43665;DHT22;29263;48.172;11.484;2022-09-24T12:03:05;14.10;99.90
43665;DHT22;29263;48.172;11.484;2022-09-24T12:05:44;14.10;99.90
43665;DHT22;29263;48.172;11.484;2022-09-24T12:08:19;14.00;99.90
43665;DHT22;29263;48.172;11.484;2022-09-24T12:11:07;14.00;99.90
43665;DHT22;29263;48.172;11.484;2022-09-24T12:13:44;14.10;99.90
43665;DHT22;29263;48.172;11.484;2022-09-24T12:16:13;14.20;99.90
43665;DHT22;29263;48.172;11.484;2022-09-24T12:21:10;14.30;99.90
43665;DHT22;29263;48.172;11.484;2022-09-24T12:23:40;14.30;99.90
43665;DHT22;29263;48.172;11.484;2022-09-24T12:26:07;14.30;99.90
43665;DHT22;29263;48.172;11.484;2022-09-24T12:28:51;14.40;99.90
43665;DHT22;29263;48.172;11.484;2022-09-24T12:34:56;14.70;99.90
43665;DHT22;29263;48.172;11.484;2022-09-24T12:37:30;14.70;99.90
43665;DHT22;29263;48.172;11.484;2022-09-24T12:42:31;14.70;99.90
43665;DHT22;29263;48.172;11.484;2022-09-24T12:44:59;14.60;99.90
43665;DHT22;29263;48.172;11.484;2022-09-24T12:47:27;14.60;99.90
43665;DHT22;29263;48.172;11.484;2022-09-24T12:49:57;14.60;99.90
43665;DHT22;29263;48.172;11.484;2022-09-24T12:52:30;14.60;99.90
43665;DHT22;29263;48.172;11.484;2022-09-24T12:54:59;14.60;99.90
43665;DHT22;29263;48.172;11.484;2022-09-24T12:57:30;14.60;99.90
43665;DHT22;29263;48.172;11.484;2022-09-24T12:59:59;14.80;99.90
43665;DHT22;29263;48.172;11.484;2022-09-24T13:02:28;14.80;99.90
43665;DHT22;29263;48.172;11.484;2022-09-24T13:07:37;14.80;99.90
43665;DHT22;29263;48.172;11.484;2022-09-24T13:12:41;14.80;99.90
43665;DHT22;29263;48.172;11.484;2022-09-24T13:15:22;14.80;99.90
43665;DHT22;29263;48.172;11.484;2022-09-24T13:20:40;14.80;99.90
43665;DHT22;29263;48.172;11.484;2022-09-24T13:26:00;14.90;99.90
43665;DHT22;29263;48.172;11.484;2022-09-24T13:33:44;15.00;99.90
43665;DHT22;29263;48.172;11.484;2022-09-24T13:36:22;14.90;99.90
43665;DHT22;29263;48.172;11.484;2022-09-24T13:39:12;15.00;99.90
43665;DHT22;29263;48.172;11.484;2022-09-24T13:44:33;15.30;99.90
43665;DHT22;29263;48.172;11.484;2022-09-24T13:49:37;15.40;99.90
43665;DHT22;29263;48.172;11.484;2022-09-24T13:52:11;15.40;99.90
43665;DHT22;29263;48.172;11.484;2022-09-24T13:54:47;15.40;99.90
43665;DHT22;29263;48.172;11.484;2022-09-24T13:57:25;15.40;99.90
43665;DHT22;29263;48.172;11.484;2022-09-24T14:00:13;15.50;99.90
43665;DHT22;29263;48.172;11.484;2022-09-24T14:02:51;15.50;99.90
43665;DHT22;29263;48.172;11.484;2022-09-24T14:05:18;15.50;99.90
43665;DHT22;29263;48.172;11.484;2022-09-24T14:07:56;15.50;99.90
43665;DHT22;29263;48.172;11.484;2022-09-24T14:10:23;15.50;99.90
43665;DHT22;29263;48.172;11.484;2022-09-24T14:13:08;15.50;99.90
43665;DHT22;29263;48.172;11.484;2022-09-24T14:15:35;15.50;99.90
43665;DHT22;29263;48.172;11.484;2022-09-24T14:18:01;15.60;99.90
43665;DHT22;29263;48.172;11.484;2022-09-24T14:20:29;15.50;99.90
43665;DHT22;29263;48.172;11.484;2022-09-24T14:22:56;15.50;99.90
43665;DHT22;29263;48.172;11.484;2022-09-24T14:25:29;15.50;99.90
43665;DHT22;29263;48.172;11.484;2022-09-24T14:27:58;15.50;99.90
43665;DHT22;29263;48.172;11.484;2022-09-24T14:30:28;15.40;99.90
43665;DHT22;29263;48.172;11.484;2022-09-24T14:32:59;15.50;99.90
43665;DHT22;29263;48.172;11.484;2022-09-24T14:35:33;15.50;99.90
43665;DHT22;29263;48.172;11.484;2022-09-24T14:38:05;15.50;99.90
43665;DHT22;29263;48.172;11.484;2022-09-24T14:43:20;15.50;99.90
43665;DHT22;29263;48.172;11.484;2022-09-24T14:45:47;15.40;99.90
43665;DHT22;29263;48.172;11.484;2022-09-24T14:48:31;15.40;99.90
43665;DHT22;29263;48.172;11.484;2022-09-24T14:50:57;15.30;99.90
43665;DHT22;29263;48.172;11.484;2022-09-24T14:53:35;15.30;99.90
43665;DHT22;29263;48.172;11.484;2022-09-24T14:56:24;15.20;99.90
43665;DHT22;29263;48.172;11.484;2022-09-24T14:58:50;15.20;99.90
43665;DHT22;29263;48.172;11.484;2022-09-24T15:01:17;15.10;99.90
43665;DHT22;29263;48.172;11.484;2022-09-24T15:04:04;15.10;99.90
43665;DHT22;29263;48.172;11.484;2022-09-24T15:06:34;15.00;99.90
43665;DHT22;29263;48.172;11.484;2022-09-24T15:09:06;15.00;99.90
43665;DHT22;29263;48.172;11.484;2022-09-24T15:11:40;15.00;99.90
43665;DHT22;29263;48.172;11.484;2022-09-24T15:14:19;15.00;99.90
43665;DHT22;29263;48.172;11.484;2022-09-24T15:16:50;15.00;99.90
43665;DHT22;29263;48.172;11.484;2022-09-24T15:19:17;14.90;99.90
43665;DHT22;29263;48.172;11.484;2022-09-24T15:21:45;14.90;99.90
43665;DHT22;29263;48.172;11.484;2022-09-24T15:24:13;14.80;99.90
43665;DHT22;29263;48.172;11.484;2022-09-24T15:26:43;14.70;99.90
43665;DHT22;29263;48.172;11.484;2022-09-24T15:29:19;14.70;99.90
43665;DHT22;29263;48.172;11.484;2022-09-24T15:31:51;14.60;99.90
43665;DHT22;29263;48.172;11.484;2022-09-24T15:34:18;14.60;99.90
43665;DHT22;29263;48.172;11.484;2022-09-24T15:36:45;14.50;99.90
43665;DHT22;29263;48.172;11.484;2022-09-24T15:39:11;14.40;99.90
43665;DHT22;29263;48.172;11.484;2022-09-24T15:41:37;14.40;99.90
43665;DHT22;29263;48.172;11.484;2022-09-24T15:44:04;14.40;99.90
43665;DHT22;29263;48.172;11.484;2022-09-24T15:46:30;14.40;99.90
43665;DHT22;29263;48.172;11.484;2022-09-24T15:48:55;14.30;99.90
43665;DHT22;29263;48.172;11.484;2022-09-24T15:51:21;14.20;99.90
43665;DHT22;29263;48.172;11.484;2022-09-24T15:53:48;14.10;99.90
43665;DHT22;29263;48.172;11.484;2022-09-24T15:56:14;14.10;99.90
43665;DHT22;29263;48.172;11.484;2022-09-24T15:58:41;14.10;99.90
43665;DHT22;29263;48.172;11.484;2022-09-24T16:01:12;14.10;99.90
43665;DHT22;29263;48.172;11.484;2022-09-24T16:03:39;14.20;99.90
43665;DHT22;29263;48.172;11.484;2022-09-24T16:06:05;14.20;99.90
43665;DHT22;29263;48.172;11.484;2022-09-24T16:08:30;14.20;99.90
43665;DHT22;29263;48.172;11.484;2022-09-24T16:10:56;14.20;99.90
43665;DHT22;29263;48.172;11.484;2022-09-24T16:13:22;14.10;99.90
43665;DHT22;29263;48.172;11.484;2022-09-24T16:15:48;14.10;99.90
43665;DHT22;29263;48.172;11.484;2022-09-24T16:18:15;14.20;99.90
43665;DHT22;29263;48.172;11.484;2022-09-24T16:20:41;14.20;99.90
43665;DHT22;29263;48.172;11.484;2022-09-24T16:23:13;14.10;99.90
43665;DHT22;29263;48.172;11.484;2022-09-24T16:25:41;14.10;99.90
43665;DHT22;29263;48.172;11.484;2022-09-24T16:28:06;14.10;99.90
43665;DHT22;29263;48.172;11.484;2022-09-24T16:30:34;14.00;99.90
43665;DHT22;29263;48.172;11.484;2022-09-24T16:33:00;14.00;99.90
43665;DHT22;29263;48.172;11.484;2022-09-24T16:35:25;14.00;99.90
43665;DHT22;29263;48.172;11.484;2022-09-24T16:37:51;14.00;99.90
43665;DHT22;29263;48.172;11.484;2022-09-24T16:40:16;13.90;99.90
43665;DHT22;29263;48.172;11.484;2022-09-24T16:42:42;13.90;99.90
43665;DHT22;29263;48.172;11.484;2022-09-24T16:45:07;13.80;99.90
43665;DHT22;29263;48.172;11.484;2022-09-24T16:47:34;13.80;99.90
43665;DHT22;29263;48.172;11.484;2022-09-24T16:50:00;13.80;99.90
43665;DHT22;29263;48.172;11.484;2022-09-24T16:52:29;13.80;99.90
43665;DHT22;29263;48.172;11.484;2022-09-24T16:54:54;13.70;99.90
43665;DHT22;29263;48.172;11.484;2022-09-24T16:57:20;13.70;99.90
43665;DHT22;29263;48.172;11.484;2022-09-24T16:59:45;13.70;99.90
43665;DHT22;29263;48.172;11.484;2022-09-24T17:02:11;13.70;99.90
43665;DHT22;29263;48.172;11.484;2022-09-24T17:04:37;13.60;99.90
43665;DHT22;29263;48.172;11.484;2022-09-24T17:07:02;13.60;99.90
43665;DHT22;29263;48.172;11.484;2022-09-24T17:09:28;13.60;99.90
43665;DHT22;29263;48.172;11.484;2022-09-24T17:12:12;13.60;99.90
43665;DHT22;29263;48.172;11.484;2022-09-24T17:14:38;13.50;99.90
43665;DHT22;29263;48.172;11.484;2022-09-24T17:17:04;13.50;99.90
43665;DHT22;29263;48.172;11.484;2022-09-24T17:19:30;13.50;99.90
43665;DHT22;29263;48.172;11.484;2022-09-24T17:21:55;13.50;99.90
43665;DHT22;29263;48.172;11.484;2022-09-24T17:24:22;13.50;99.90
43665;DHT22;29263;48.172;11.484;2022-09-24T17:26:47;13.50;99.90
43665;DHT22;29263;48.172;11.484;2022-09-24T17:29:13;13.40;99.90
43665;DHT22;29263;48.172;11.484;2022-09-24T17:31:39;13.40;99.90
43665;DHT22;29263;48.172;11.484;2022-09-24T17:34:07;13.40;99.90
43665;DHT22;29263;48.172;11.484;2022-09-24T17:36:35;13.40;99.90
43665;DHT22;29263;48.172;11.484;2022-09-24T17:39:02;13.40;99.90
43665;DHT22;29263;48.172;11.484;2022-09-24T17:41:28;13.40;99.90